createdAt,value
2023-08-15T00:01:43.697Z,98980.47
2023-08-15T00:04:10.318Z,98976.28
2023-08-15T00:06:36.845Z,98976.53
2023-08-15T00:09:03.509Z,98978.84
2023-08-15T00:11:30.000Z,98971.94
2023-08-15T00:13:57.802Z,98964.66
2023-08-15T00:16:25.355Z,98966.44
2023-08-15T00:18:51.959Z,98963.94
2023-08-15T00:21:18.670Z,98965.78
2023-08-15T00:23:45.318Z,98968.25
2023-08-15T00:26:11.878Z,98966.66
2023-08-15T00:28:38.406Z,98960.69
2023-08-15T00:31:05.022Z,98949.78
2023-08-15T00:33:31.654Z,98950.72
2023-08-15T00:35:58.265Z,98945.81
2023-08-15T00:38:24.806Z,98952.13
2023-08-15T00:40:52.080Z,98956.00
2023-08-15T00:43:20.112Z,98947.53
2023-08-15T00:45:47.658Z,98942.38
2023-08-15T00:48:16.430Z,98944.63
2023-08-15T00:50:49.033Z,98933.94
2023-08-15T00:53:15.837Z,98924.78
2023-08-15T00:55:44.065Z,98925.38
2023-08-15T00:58:10.717Z,98932.06
2023-08-15T01:00:37.703Z,98929.28
2023-08-15T01:03:05.358Z,98935.59
2023-08-15T01:05:33.338Z,98932.44
2023-08-15T01:08:00.338Z,98925.25
2023-08-15T01:10:27.165Z,98919.28
2023-08-15T01:13:12.987Z,98928.28
2023-08-15T01:15:49.818Z,98928.06
2023-08-15T01:18:30.292Z,98930.31
2023-08-15T01:20:58.314Z,98929.03
2023-08-15T01:23:46.755Z,98930.31
2023-08-15T01:26:13.731Z,98928.53
2023-08-15T01:28:40.278Z,98933.50
2023-08-15T01:31:17.603Z,98929.69
2023-08-15T01:34:02.733Z,98934.47
2023-08-15T01:36:39.510Z,98931.06
2023-08-15T01:39:09.260Z,98927.56
2023-08-15T01:41:42.086Z,98931.44
2023-08-15T01:44:12.881Z,98924.56
2023-08-15T01:46:40.040Z,98918.13
2023-08-15T01:49:06.644Z,98925.25
2023-08-15T01:51:33.332Z,98928.31
2023-08-15T01:53:59.890Z,98924.66
2023-08-15T01:56:26.469Z,98929.03
2023-08-15T01:58:53.000Z,98924.78
2023-08-15T02:01:19.823Z,98929.78
2023-08-15T02:03:46.483Z,98938.50
2023-08-15T02:06:12.998Z,98939.81
2023-08-15T02:08:39.644Z,98940.34
2023-08-15T02:11:06.254Z,98946.03
2023-08-15T02:13:34.537Z,98963.50
2023-08-15T02:16:02.350Z,98962.41
2023-08-15T02:18:30.980Z,98963.25
2023-08-15T02:20:57.782Z,98965.94
2023-08-15T02:23:24.852Z,98957.28
2023-08-15T02:25:51.660Z,98954.47
2023-08-15T02:28:18.212Z,98953.06
2023-08-15T02:30:45.042Z,98951.78
2023-08-15T02:33:11.738Z,98940.97
2023-08-15T02:35:42.594Z,98942.44
2023-08-15T02:38:09.401Z,98927.41
2023-08-15T02:40:36.068Z,98940.06
2023-08-15T02:43:03.178Z,98944.78
2023-08-15T02:45:29.727Z,98952.06
2023-08-15T02:47:56.368Z,98952.34
2023-08-15T02:50:22.931Z,98961.66
2023-08-15T02:52:49.633Z,98987.00
2023-08-15T02:55:16.243Z,98964.13
2023-08-15T02:57:42.789Z,98953.16
2023-08-15T03:00:10.781Z,98946.88
2023-08-15T03:02:37.564Z,98923.41
2023-08-15T03:05:04.562Z,98925.56
2023-08-15T03:07:31.111Z,98935.75
2023-08-15T03:09:57.732Z,98942.72
2023-08-15T03:12:24.662Z,98953.00
2023-08-15T03:14:51.192Z,98966.00
2023-08-15T03:17:20.267Z,98971.59
2023-08-15T03:19:47.146Z,98967.13
2023-08-15T03:22:13.685Z,98967.72
2023-08-15T03:24:40.291Z,98976.69
2023-08-15T03:27:06.820Z,98988.69
2023-08-15T03:29:33.413Z,98984.69
2023-08-15T03:32:00.347Z,99020.72
2023-08-15T03:34:27.094Z,99038.75
2023-08-15T03:36:53.858Z,99091.16
2023-08-15T03:39:20.427Z,99080.38
2023-08-15T03:41:47.128Z,99096.84
2023-08-15T03:44:13.871Z,99096.22
2023-08-15T03:46:41.933Z,99083.94
2023-08-15T03:49:08.920Z,99093.84
2023-08-15T03:51:46.346Z,99090.72
2023-08-15T03:54:14.355Z,99081.81
2023-08-15T03:56:40.910Z,99088.25
2023-08-15T03:59:07.606Z,99080.97
2023-08-15T04:01:34.295Z,99090.34
2023-08-15T04:04:01.177Z,99095.31
2023-08-15T04:06:27.843Z,99093.28
2023-08-15T04:08:54.331Z,99092.97
2023-08-15T04:11:21.027Z,99095.75
2023-08-15T04:13:47.961Z,99089.66
2023-08-15T04:16:16.273Z,99079.19
2023-08-15T04:18:42.853Z,99077.22
2023-08-15T04:21:12.299Z,99065.34
2023-08-15T04:23:38.830Z,99074.16
2023-08-15T04:26:05.424Z,99082.13
2023-08-15T04:28:31.958Z,99068.88
2023-08-15T04:30:58.477Z,99085.41
2023-08-15T04:33:24.983Z,99100.44
2023-08-15T04:35:51.481Z,99087.03
2023-08-15T04:38:18.186Z,99078.47
2023-08-15T04:40:44.873Z,99067.00
2023-08-15T04:43:12.131Z,99044.69
2023-08-15T04:45:44.457Z,99019.22
2023-08-15T04:48:14.172Z,98995.75
2023-08-15T04:50:41.075Z,98990.13
2023-08-15T04:53:08.400Z,98971.06
2023-08-15T04:55:35.427Z,98950.47
2023-08-15T04:58:02.746Z,98944.50
2023-08-15T05:00:30.922Z,98942.25
2023-08-15T05:02:58.948Z,98932.88
2023-08-15T05:05:26.232Z,98939.69
2023-08-15T05:07:52.813Z,98950.59
2023-08-15T05:10:19.538Z,98951.44
2023-08-15T05:12:46.080Z,98954.34
2023-08-15T05:15:12.888Z,98966.06
2023-08-15T05:17:39.751Z,98982.88
2023-08-15T05:20:07.239Z,98990.25
2023-08-15T05:22:33.774Z,98992.81
2023-08-15T05:25:00.930Z,99009.50
2023-08-15T05:27:28.242Z,99009.75
2023-08-15T05:29:54.762Z,99020.88
2023-08-15T05:32:21.299Z,99031.53
2023-08-15T05:34:47.926Z,99028.38
2023-08-15T05:37:14.462Z,99016.75
2023-08-15T05:39:40.979Z,99024.28
2023-08-15T05:42:07.739Z,99039.41
2023-08-15T05:44:34.240Z,99043.97
2023-08-15T05:47:00.765Z,99041.28
2023-08-15T05:49:27.572Z,99043.19
2023-08-15T05:51:55.096Z,99048.22
2023-08-15T05:54:22.505Z,99062.16
2023-08-15T05:56:49.297Z,99066.06
2023-08-15T05:59:15.895Z,99069.00
2023-08-15T06:01:42.440Z,99071.81
2023-08-15T06:04:09.425Z,99073.22
2023-08-15T06:06:36.139Z,99063.88
2023-08-15T06:09:02.982Z,99067.72
2023-08-15T06:11:29.754Z,99077.13
2023-08-15T06:13:56.345Z,99065.72
2023-08-15T06:16:22.907Z,99056.63
2023-08-15T06:18:49.727Z,99056.97
2023-08-15T06:21:16.260Z,99066.63
2023-08-15T06:23:43.386Z,99069.09
2023-08-15T06:26:09.904Z,99068.78
2023-08-15T06:28:36.586Z,99061.97
2023-08-15T06:31:03.127Z,99067.69
2023-08-15T06:33:29.866Z,99063.41
2023-08-15T06:35:56.455Z,99067.56
2023-08-15T06:38:23.036Z,99075.34
2023-08-15T06:40:50.227Z,99073.91
2023-08-15T06:43:16.743Z,99064.03
2023-08-15T06:45:43.281Z,99071.16
2023-08-15T06:48:09.930Z,99060.44
2023-08-15T06:50:36.416Z,99068.22
2023-08-15T06:53:03.048Z,99065.97
2023-08-15T06:55:29.585Z,99068.88
2023-08-15T06:57:56.290Z,99062.44
2023-08-15T07:00:22.986Z,99068.97
2023-08-15T07:02:49.632Z,99055.69
2023-08-15T07:05:16.343Z,99059.00
2023-08-15T07:07:42.958Z,99063.06
2023-08-15T07:10:11.323Z,99055.22
2023-08-15T07:12:38.056Z,99052.47
2023-08-15T07:15:05.510Z,99057.03
2023-08-15T07:17:32.121Z,99058.94
2023-08-15T07:19:59.517Z,99061.16
2023-08-15T07:22:26.083Z,99056.59
2023-08-15T07:24:52.816Z,99056.00
2023-08-15T07:27:19.313Z,99054.56
2023-08-15T07:29:45.975Z,99056.59
2023-08-15T07:32:13.550Z,99053.97
2023-08-15T07:34:41.843Z,99055.06
2023-08-15T07:37:08.620Z,99058.16
2023-08-15T07:39:35.162Z,99057.94
2023-08-15T07:42:01.750Z,99064.41
2023-08-15T07:44:28.782Z,99056.19
2023-08-15T07:46:55.446Z,99074.50
2023-08-15T07:49:22.023Z,99088.38
2023-08-15T07:51:48.866Z,99080.50
2023-08-15T07:54:15.405Z,99094.16
2023-08-15T07:56:42.048Z,99088.44
2023-08-15T07:59:08.622Z,99102.50
2023-08-15T08:01:35.392Z,99097.41
2023-08-15T08:04:02.134Z,99101.47
2023-08-15T08:08:58.922Z,99111.31
2023-08-15T08:11:25.600Z,99111.47
2023-08-15T08:13:52.104Z,99114.13
2023-08-15T08:16:18.858Z,99116.91
2023-08-15T08:18:45.497Z,99122.50
2023-08-15T08:21:12.464Z,99126.34
2023-08-15T08:23:39.197Z,99127.34
2023-08-15T08:26:06.103Z,99131.38
2023-08-15T08:28:33.044Z,99124.81
2023-08-15T08:30:59.755Z,99128.28
2023-08-15T08:33:29.860Z,99125.41
2023-08-15T08:35:57.267Z,99121.63
2023-08-15T08:38:24.833Z,99130.31
2023-08-15T08:40:56.824Z,99122.22
2023-08-15T08:43:23.965Z,99109.94
2023-08-15T08:46:00.768Z,99110.50
2023-08-15T08:48:28.066Z,99113.22
2023-08-15T08:50:56.998Z,99109.97
2023-08-15T08:53:23.836Z,99114.75
2023-08-15T08:55:52.805Z,99123.34
2023-08-15T08:58:19.516Z,99118.53
2023-08-15T09:00:48.740Z,99119.06
2023-08-15T09:03:15.741Z,99127.50
2023-08-15T09:05:43.292Z,99124.31
2023-08-15T09:08:10.422Z,99127.63
2023-08-15T09:10:37.030Z,99121.25
2023-08-15T09:13:04.978Z,99129.31
2023-08-15T09:15:34.732Z,99118.78
2023-08-15T09:18:07.632Z,99126.41
2023-08-15T09:20:45.518Z,99137.22
2023-08-15T09:23:12.159Z,99129.31
2023-08-15T09:25:38.817Z,99135.66
2023-08-15T09:28:06.886Z,99124.81
2023-08-15T09:30:33.562Z,99133.00
2023-08-15T09:33:03.873Z,99124.81
2023-08-15T09:35:33.761Z,99139.47
2023-08-15T09:38:07.077Z,99142.44
2023-08-15T09:40:33.565Z,99142.00
2023-08-15T09:43:00.330Z,99142.03
2023-08-15T09:45:28.039Z,99145.28
2023-08-15T09:47:56.587Z,99150.03
2023-08-15T09:50:24.116Z,99152.53
2023-08-15T09:52:53.070Z,99161.13
2023-08-15T09:55:20.814Z,99152.09
2023-08-15T09:57:47.960Z,99156.75
2023-08-15T10:00:17.289Z,99161.63
2023-08-15T10:02:53.031Z,99159.56
2023-08-15T10:05:24.802Z,99169.72
2023-08-15T10:07:51.453Z,99161.00
2023-08-15T10:10:19.377Z,99159.00
2023-08-15T10:12:51.173Z,99155.69
2023-08-15T10:15:21.126Z,99153.22
2023-08-15T10:17:51.013Z,99159.41
2023-08-15T10:20:21.158Z,99161.13
2023-08-15T10:22:58.719Z,99162.19
2023-08-15T10:25:25.618Z,99151.47
2023-08-15T10:27:55.322Z,99164.03
2023-08-15T10:30:34.507Z,99162.78
2023-08-15T10:33:13.743Z,99166.56
2023-08-15T10:35:52.278Z,99158.50
2023-08-15T10:38:27.157Z,99149.66
2023-08-15T10:41:03.698Z,99156.50
2023-08-15T10:43:30.403Z,99160.22
2023-08-15T10:46:03.008Z,99156.94
2023-08-15T10:49:02.989Z,99159.06
2023-08-15T10:51:35.854Z,99155.75
2023-08-15T10:54:09.291Z,99156.22
2023-08-15T10:56:39.086Z,99161.59
2023-08-15T10:59:09.859Z,99155.53
2023-08-15T11:01:38.658Z,99168.25
2023-08-15T11:04:09.860Z,99176.88
2023-08-15T11:06:47.716Z,99171.88
2023-08-15T11:09:16.570Z,99178.75
2023-08-15T11:11:45.228Z,99183.50
2023-08-15T11:14:20.969Z,99183.66
2023-08-15T11:16:49.684Z,99180.94
2023-08-15T11:19:18.678Z,99182.81
2023-08-15T11:21:46.146Z,99187.34
2023-08-15T11:24:12.981Z,99183.78
2023-08-15T11:26:41.653Z,99188.22
2023-08-15T11:29:10.269Z,99189.03
2023-08-15T11:31:37.981Z,99197.72
2023-08-15T11:34:06.388Z,99193.63
2023-08-15T11:36:33.139Z,99199.09
2023-08-15T11:39:01.352Z,99196.63
2023-08-15T11:41:28.899Z,99205.41
2023-08-15T11:43:55.830Z,99206.69
2023-08-15T11:46:22.684Z,99205.34
2023-08-15T11:48:50.889Z,99214.88
2023-08-15T11:51:21.969Z,99224.16
2023-08-15T11:53:52.919Z,99241.47
2023-08-15T11:56:21.521Z,99254.63
2023-08-15T11:58:48.972Z,99254.41
2023-08-15T12:01:15.828Z,99227.69
2023-08-15T12:03:42.544Z,99208.47
2023-08-15T12:06:12.934Z,99201.88
2023-08-15T12:08:46.266Z,99200.28
2023-08-15T12:11:13.738Z,99181.06
2023-08-15T12:13:42.288Z,99178.41
2023-08-15T12:16:12.018Z,99165.22
2023-08-15T12:18:40.349Z,99155.81
2023-08-15T12:21:10.480Z,99150.97
2023-08-15T12:23:39.080Z,99166.75
2023-08-15T12:26:05.662Z,99163.13
2023-08-15T12:28:32.260Z,99150.69
2023-08-15T12:30:58.939Z,99153.56
2023-08-15T12:35:55.750Z,99192.88
2023-08-15T12:38:22.277Z,99202.84
2023-08-15T12:40:48.798Z,99205.88
2023-08-15T12:43:15.425Z,99207.81
2023-08-15T12:45:42.036Z,99205.25
2023-08-15T12:48:08.714Z,99205.88
2023-08-15T12:50:35.254Z,99212.25
2023-08-15T12:53:01.786Z,99214.28
2023-08-15T12:55:28.405Z,99210.38
2023-08-15T12:57:55.219Z,99213.31
2023-08-15T13:00:22.339Z,99203.19
2023-08-15T13:02:49.132Z,99210.56
2023-08-15T13:05:15.755Z,99211.88
2023-08-15T13:07:42.423Z,99219.38
2023-08-15T13:10:09.129Z,99220.63
2023-08-15T13:12:35.652Z,99224.06
2023-08-15T13:15:02.382Z,99219.88
2023-08-15T13:17:28.895Z,99228.56
2023-08-15T13:19:55.425Z,99230.97
2023-08-15T13:22:22.193Z,99222.97
2023-08-15T13:24:49.015Z,99227.28
2023-08-15T13:27:15.561Z,99226.34
2023-08-15T13:29:43.366Z,99222.16
2023-08-15T13:32:11.833Z,99223.97
2023-08-15T13:34:38.383Z,99213.81
2023-08-15T13:37:05.310Z,99217.53
2023-08-15T13:39:31.863Z,99218.41
2023-08-15T13:41:58.356Z,99233.94
2023-08-15T13:44:24.884Z,99220.16
2023-08-15T13:46:51.512Z,99219.34
2023-08-15T13:49:18.055Z,99216.94
2023-08-15T13:51:44.649Z,99217.56
2023-08-15T13:54:11.119Z,99227.47
2023-08-15T13:56:38.783Z,99220.34
2023-08-15T13:59:05.530Z,99222.03
2023-08-15T14:01:33.397Z,99224.34
2023-08-15T14:04:00.049Z,99232.19
2023-08-15T14:06:28.563Z,99230.56
2023-08-15T14:08:55.353Z,99228.66
2023-08-15T14:11:22.024Z,99237.31
2023-08-15T14:13:48.563Z,99242.56
2023-08-15T14:16:15.343Z,99253.97
2023-08-15T14:18:42.158Z,99269.09
2023-08-15T14:21:12.643Z,99263.91
2023-08-15T14:23:45.019Z,99239.31
2023-08-15T14:26:12.038Z,99249.72
2023-08-15T14:28:38.859Z,99243.22
2023-08-15T14:31:06.997Z,99244.00
2023-08-15T14:33:34.282Z,99246.03
2023-08-15T14:36:00.927Z,99248.97
2023-08-15T14:38:27.630Z,99248.47
2023-08-15T14:40:54.690Z,99238.66
2023-08-15T14:43:21.402Z,99225.75
2023-08-15T14:45:47.925Z,99215.72
2023-08-15T14:48:14.680Z,99215.25
2023-08-15T14:50:42.561Z,99202.16
2023-08-15T14:53:09.433Z,99207.13
2023-08-15T14:55:36.113Z,99201.31
2023-08-15T14:58:03.241Z,99211.97
2023-08-15T15:00:29.836Z,99215.69
2023-08-15T15:02:56.618Z,99208.94
2023-08-15T15:05:23.720Z,99206.25
2023-08-15T15:07:50.796Z,99210.50
2023-08-15T15:10:17.741Z,99205.00
2023-08-15T15:12:46.000Z,99210.44
2023-08-15T15:15:12.651Z,99216.00
2023-08-15T15:17:39.281Z,99204.38
2023-08-15T15:20:08.089Z,99206.75
2023-08-15T15:22:34.830Z,99212.78
2023-08-15T15:25:01.446Z,99227.13
2023-08-15T15:27:28.260Z,99224.09
2023-08-15T15:29:54.859Z,99217.06
2023-08-15T15:32:21.547Z,99220.66
2023-08-15T15:34:48.223Z,99218.97
2023-08-15T15:37:14.801Z,99219.34
2023-08-15T15:39:41.263Z,99216.69
2023-08-15T15:42:08.511Z,99217.81
2023-08-15T15:44:35.384Z,99216.72
2023-08-15T15:47:03.330Z,99219.59
2023-08-15T15:49:30.077Z,99215.13
2023-08-15T15:51:56.613Z,99214.13
2023-08-15T15:54:23.521Z,99216.56
2023-08-15T15:56:50.028Z,99220.25
2023-08-15T15:59:17.746Z,99226.34
2023-08-15T16:01:44.592Z,99236.00
2023-08-15T16:04:12.015Z,99232.59
2023-08-15T16:06:38.677Z,99229.72
2023-08-15T16:09:05.689Z,99214.09
2023-08-15T16:11:32.242Z,99236.81
2023-08-15T16:13:58.745Z,99239.13
2023-08-15T16:16:25.359Z,99241.72
2023-08-15T16:18:51.964Z,99241.00
2023-08-15T16:21:20.923Z,99244.44
2023-08-15T16:23:49.478Z,99245.16
2023-08-15T16:26:15.992Z,99242.56
2023-08-15T16:28:44.832Z,99248.81
2023-08-15T16:31:11.455Z,99245.25
2023-08-15T16:33:38.260Z,99245.72
2023-08-15T16:36:04.935Z,99241.13
2023-08-15T16:38:31.480Z,99241.88
2023-08-15T16:40:58.023Z,99242.00
2023-08-15T16:43:27.013Z,99239.41
2023-08-15T16:45:53.970Z,99238.47
2023-08-15T16:48:20.627Z,99239.88
2023-08-15T16:50:47.284Z,99241.25
2023-08-15T16:53:13.806Z,99242.09
2023-08-15T16:55:40.605Z,99239.41
2023-08-15T16:58:07.164Z,99246.88
2023-08-15T17:00:33.658Z,99241.53
2023-08-15T17:03:00.460Z,99236.25
2023-08-15T17:05:28.201Z,99246.19
2023-08-15T17:07:54.860Z,99249.00
2023-08-15T17:10:21.569Z,99240.91
2023-08-15T17:12:48.619Z,99240.88
2023-08-15T17:15:16.554Z,99239.34
2023-08-15T17:17:43.871Z,99243.06
2023-08-15T17:20:11.845Z,99239.03
2023-08-15T17:22:38.957Z,99239.66
2023-08-15T17:25:06.431Z,99244.16
2023-08-15T17:27:33.132Z,99248.13
2023-08-15T17:29:59.695Z,99253.13
2023-08-15T17:32:27.176Z,99247.72
2023-08-15T17:34:53.912Z,99244.00
2023-08-15T17:37:20.717Z,99243.00
2023-08-15T17:39:47.257Z,99244.63
2023-08-15T17:42:14.043Z,99241.34
2023-08-15T17:44:40.533Z,99252.34
2023-08-15T17:47:08.030Z,99252.66
2023-08-15T17:49:34.721Z,99257.13
2023-08-15T17:52:01.471Z,99255.81
2023-08-15T17:54:28.107Z,99250.25
2023-08-15T17:56:54.942Z,99259.41
2023-08-15T17:59:21.652Z,99258.84
2023-08-15T18:01:48.637Z,99263.34
2023-08-15T18:04:15.597Z,99271.09
2023-08-15T18:06:42.534Z,99271.09
2023-08-15T18:09:10.505Z,99277.00
2023-08-15T18:11:37.455Z,99282.25
2023-08-15T18:14:05.440Z,99276.41
2023-08-15T18:16:32.297Z,99281.28
2023-08-15T18:18:59.174Z,99291.84
2023-08-15T18:21:26.012Z,99304.06
2023-08-15T18:23:52.782Z,99301.38
2023-08-15T18:26:19.290Z,99305.97
2023-08-15T18:28:45.967Z,99310.44
2023-08-15T18:31:12.588Z,99308.38
2023-08-15T18:33:39.505Z,99322.56
2023-08-15T18:36:06.559Z,99317.16
2023-08-15T18:38:33.897Z,99321.75
2023-08-15T18:41:00.783Z,99323.59
2023-08-15T18:43:27.684Z,99336.53
2023-08-15T18:45:54.356Z,99337.34
2023-08-15T18:48:21.787Z,99342.41
2023-08-15T18:50:48.758Z,99342.16
2023-08-15T18:53:15.465Z,99341.94
2023-08-15T18:55:42.723Z,99352.16
2023-08-15T18:58:11.311Z,99348.31
2023-08-15T19:00:39.787Z,99347.50
2023-08-15T19:03:10.162Z,99354.69
2023-08-15T19:05:37.060Z,99356.91
2023-08-15T19:08:03.774Z,99361.28
2023-08-15T19:10:30.430Z,99369.50
2023-08-15T19:12:56.991Z,99366.78
2023-08-15T19:15:23.604Z,99373.16
2023-08-15T19:17:50.988Z,99379.84
2023-08-15T19:20:21.899Z,99384.31
2023-08-15T19:22:49.206Z,99384.19
2023-08-15T19:25:16.914Z,99373.75
2023-08-15T19:27:44.899Z,99372.22
2023-08-15T19:30:12.793Z,99377.28
2023-08-15T19:32:39.687Z,99382.34
2023-08-15T19:35:07.098Z,99374.22
2023-08-15T19:37:38.641Z,99366.97
2023-08-15T19:40:07.889Z,99374.69
2023-08-15T19:42:42.528Z,99371.38
2023-08-15T19:45:11.316Z,99370.50
2023-08-15T19:47:38.936Z,99365.34
2023-08-15T19:50:08.227Z,99369.25
2023-08-15T19:52:36.455Z,99365.69
2023-08-15T19:55:04.539Z,99365.09
2023-08-15T19:57:31.267Z,99371.47
2023-08-15T19:59:57.905Z,99366.25
2023-08-15T20:02:24.727Z,99364.97
2023-08-15T20:04:51.577Z,99367.03
2023-08-15T20:07:19.085Z,99372.50
2023-08-15T20:09:55.298Z,99370.00
2023-08-15T20:12:31.136Z,99371.31
2023-08-15T20:14:57.678Z,99368.50
2023-08-15T20:17:24.294Z,99385.88
2023-08-15T20:19:50.965Z,99375.84
2023-08-15T20:22:18.295Z,99369.00
2023-08-15T20:24:45.264Z,99374.06
2023-08-15T20:27:15.570Z,99371.50
2023-08-15T20:29:43.565Z,99371.88
2023-08-15T20:32:10.722Z,99379.94
2023-08-15T20:34:38.228Z,99376.66
2023-08-15T20:37:04.963Z,99381.38
2023-08-15T20:39:31.506Z,99374.53
2023-08-15T20:41:58.110Z,99374.84
2023-08-15T20:44:24.790Z,99373.91
2023-08-15T20:46:51.348Z,99382.41
2023-08-15T20:49:17.856Z,99379.94
2023-08-15T20:51:44.680Z,99380.47
2023-08-15T20:54:11.877Z,99378.88
2023-08-15T20:56:38.711Z,99380.50
2023-08-15T20:59:05.373Z,99376.00
2023-08-15T21:01:31.910Z,99377.13
2023-08-15T21:03:58.759Z,99376.16
2023-08-15T21:06:26.317Z,99380.00
2023-08-15T21:08:53.049Z,99382.91
2023-08-15T21:11:20.209Z,99386.97
2023-08-15T21:13:46.832Z,99387.84
2023-08-15T21:16:13.473Z,99385.22
2023-08-15T21:18:40.042Z,99383.50
2023-08-15T21:21:08.445Z,99382.94
2023-08-15T21:23:35.865Z,99393.59
2023-08-15T21:26:03.306Z,99389.75
2023-08-15T21:28:29.933Z,99388.66
2023-08-15T21:30:56.891Z,99388.22
2023-08-15T21:33:23.894Z,99383.13
2023-08-15T21:35:52.679Z,99385.47
2023-08-15T21:38:20.549Z,99382.03
2023-08-15T21:40:49.629Z,99388.66
2023-08-15T21:43:17.617Z,99391.69
2023-08-15T21:45:44.396Z,99390.91
2023-08-15T21:48:11.441Z,99393.22
2023-08-15T21:50:38.590Z,99384.38
2023-08-15T21:53:06.279Z,99393.94
2023-08-15T21:55:33.997Z,99394.88
2023-08-15T21:58:00.834Z,99393.91
2023-08-15T22:00:28.500Z,99396.66
2023-08-15T22:02:57.921Z,99394.75
2023-08-15T22:05:26.140Z,99395.22
2023-08-15T22:07:53.582Z,99397.66
2023-08-15T22:10:21.442Z,99394.19
2023-08-15T22:12:50.053Z,99400.31
2023-08-15T22:15:18.275Z,99397.09
2023-08-15T22:17:47.888Z,99398.41
2023-08-15T22:20:17.309Z,99394.44
2023-08-15T22:22:44.230Z,99401.81
2023-08-15T22:25:10.837Z,99398.16
2023-08-15T22:27:37.473Z,99404.75
2023-08-15T22:30:07.843Z,99405.41
2023-08-15T22:32:34.512Z,99395.31
2023-08-15T22:35:01.368Z,99400.69
2023-08-15T22:37:29.247Z,99406.50
2023-08-15T22:39:55.815Z,99407.00
2023-08-15T22:42:22.414Z,99413.78
2023-08-15T22:44:49.005Z,99406.38
2023-08-15T22:47:15.532Z,99403.44
2023-08-15T22:49:42.140Z,99411.25
2023-08-15T22:52:08.762Z,99401.97
2023-08-15T22:54:35.415Z,99408.88
2023-08-15T22:57:02.275Z,99403.50
2023-08-15T22:59:29.050Z,99401.69
2023-08-15T23:01:56.051Z,99391.88
2023-08-15T23:04:22.749Z,99391.94
2023-08-15T23:06:50.526Z,99397.25
2023-08-15T23:09:17.092Z,99394.88
2023-08-15T23:11:43.653Z,99390.19
2023-08-15T23:14:10.278Z,99402.28
2023-08-15T23:16:36.807Z,99397.63
2023-08-15T23:19:03.362Z,99397.84
2023-08-15T23:21:29.913Z,99392.88
2023-08-15T23:23:56.430Z,99397.34
2023-08-15T23:26:23.096Z,99404.81
2023-08-15T23:28:49.624Z,99402.59
2023-08-15T23:31:17.110Z,99402.13
2023-08-15T23:33:45.653Z,99401.53
2023-08-15T23:36:12.551Z,99393.59
2023-08-15T23:38:39.089Z,99399.72
2023-08-15T23:41:05.598Z,99391.81
2023-08-15T23:43:32.079Z,99398.16
2023-08-15T23:45:58.856Z,99397.63
2023-08-15T23:48:25.627Z,99397.56
2023-08-15T23:50:52.164Z,99392.78
2023-08-15T23:53:18.700Z,99386.31
2023-08-15T23:55:45.203Z,99395.38
2023-08-15T23:58:11.744Z,99399.38
